Bedford Heights, OH

1:37 AM EST on February 14, 2016 (GMT -0500)
WEST-WARD/St. Marys/Carylwood Neighborhood | | Change Station
CLOSE
Current Station
Personal Weather Station
Location: Bedford, OH
Elevation: 1001 ft
Nearby Weather Stations

Elev 1001 ft 41.37 °N, 81.52 °W | Updated 1 minute ago

Overcast
Overcast
9.9 °F
Feels Like 10 °F
N
0.0
Wind Variable Wind from WSW
Gusts 0.0 mph

Today
High -- | Low -- °F
--% Chance of Precip.
Yesterday
High -- | Low -- °F
Precip. -- in
Pressure 30.44 in
Visibility 10.0 miles
Clouds Mostly Cloudy 3000 ft
Overcast 5000 ft
Windchill 10 °F
Dew Point 7 °F
Humidity 88%
Rainfall 0.00 in
Snow Depth Not available.
7:22 AM 5:58 PM
Waxing Crescent, 38% visible
METAR KCGF 140345Z 36010KT 10SM BKN030 OVC050 M10/M16 A3044
Pressure 30.44 in
Visibility 10.0 miles
Clouds Mostly Cloudy 3000 ft
Overcast 5000 ft
Windchill 10 °F
Dew Point 7 °F
Humidity 88%
Rainfall 0.00 in
Snow Depth Not available.
7:22 AM 5:58 PM
Waxing Crescent, 38% visible
METAR KCGF 140345Z 36010KT 10SM BKN030 OVC050 M10/M16 A3044

10-Day Weather Forecast

Almanac

Astronomy

Feb. 14, 2016 Rise Set
Actual Time
Civil Twilight
Nautical Twilight
Astronomical Twilight
Moon
Length of Visible Light
Length of Day
Tomorrow will be .
, % of the Moon is Illuminated

Today's Extremes

State Highs State Lows

Community

WunderPhotos

Upload Photos

1,892,757 photos uploaded!

WunderBlog® & News

Nearby

Air Quality

  Air Quality AQ Index Pollutant
Not available.

Snow Depth

Station Depth Elevation

Earthquake Activity

City Distance Mag. Time & Date
Minimum magnitude displayed is 2.5.

Coastal Water Temperatures

Place Temperature

Stations

Nearby Weather Stations

Station Location Temp. Windchill Dew Point Humidity Wind Precip. Elev Updated Type
                   

Watches & Warnings

There are currently no watches in effect.